Time;durP1;ratioP1;P1;durP2;ratioP2;P2;SDS_P1;SDS_P2;PMS_P1;PMS_P2;Temp;Humidity;BMP_temperature;BMP_pressure;BME280_temperature;BME280_humidity;BME280_pressure;Samples;Min_cycle;Max_cycle;Signal;HPM_P1;HPM_P2
2023/10/05 00:01:13;;;;;;;9.48;1.30;;;14.10;80.90;;;;;;4997380;28;20492;-75
2023/10/05 00:03:43;;;;;;;7.63;1.55;;;14.10;81.00;;;;;;4991648;28;20509;-76
2023/10/05 00:06:14;;;;;;;5.17;1.00;;;14.10;80.90;;;;;;5000157;28;20053;-75
2023/10/05 00:08:44;;;;;;;6.32;1.45;;;14.10;81.00;;;;;;5006767;28;20254;-75
2023/10/05 00:11:22;;;;;;;9.50;1.38;;;14.10;81.10;;;;;;4996879;28;20054;-75
2023/10/05 00:13:50;;;;;;;7.40;1.70;;;14.10;81.10;;;;;;5008032;28;20472;-76
2023/10/05 00:16:20;;;;;;;9.15;1.10;;;14.10;81.20;;;;;;5001266;28;20497;-75
2023/10/05 00:18:49;;;;;;;8.03;1.63;;;14.10;81.20;;;;;;5001883;28;20050;-75
2023/10/05 00:21:19;;;;;;;7.68;1.50;;;14.10;81.40;;;;;;5001172;28;20364;-75
2023/10/05 00:23:52;;;;;;;5.22;1.20;;;14.10;81.40;;;;;;4975351;28;20400;-75
2023/10/05 00:26:29;;;;;;;12.43;1.60;;;14.10;81.30;;;;;;4990312;28;20069;-76
2023/10/05 00:29:04;;;;;;;6.03;1.35;;;14.10;81.50;;;;;;5007441;28;20061;-76
2023/10/05 00:31:33;;;;;;;7.13;1.57;;;14.10;81.50;;;;;;4990885;28;20129;-75
2023/10/05 00:34:02;;;;;;;5.72;1.15;;;14.10;81.50;;;;;;4974361;28;20257;-75
2023/10/05 00:36:35;;;;;;;9.45;1.92;;;14.10;81.60;;;;;;5026985;28;20605;-76
2023/10/05 00:39:07;;;;;;;6.18;1.40;;;14.10;81.60;;;;;;4994365;28;20053;-75
2023/10/05 00:41:34;;;;;;;7.53;1.55;;;14.10;81.70;;;;;;5028116;28;20602;-75
2023/10/05 00:44:04;;;;;;;9.90;1.60;;;14.10;81.70;;;;;;4990475;28;20141;-75
2023/10/05 00:46:32;;;;;;;8.18;1.48;;;14.10;81.60;;;;;;5006069;28;20361;-76
2023/10/05 00:49:05;;;;;;;9.10;1.60;;;14.10;81.60;;;;;;4990545;28;20600;-76
2023/10/05 00:51:36;;;;;;;7.40;1.40;;;14.10;81.70;;;;;;5008084;28;20132;-75
2023/10/05 00:54:10;;;;;;;7.43;1.30;;;14.10;81.80;;;;;;4994474;28;20085;-75
2023/10/05 00:56:40;;;;;;;8.93;1.87;;;14.10;81.70;;;;;;5010476;28;20081;-76
2023/10/05 00:59:11;;;;;;;5.88;1.33;;;14.10;81.70;;;;;;5026485;28;20246;-75
2023/10/05 01:01:55;;;;;;;6.93;1.10;;;14.10;81.90;;;;;;4990771;28;20157;-76
2023/10/05 01:04:28;;;;;;;5.68;1.50;;;14.10;81.90;;;;;;4989482;28;20102;-76
2023/10/05 01:07:17;;;;;;;5.93;1.20;;;14.10;82.00;;;;;;4990523;28;20424;-76
2023/10/05 01:10:15;;;;;;;9.03;1.30;;;14.10;81.90;;;;;;4990032;28;20058;-74
2023/10/05 01:12:43;;;;;;;8.23;1.42;;;14.10;81.90;;;;;;4974015;28;20277;-75
2023/10/05 01:15:15;;;;;;;5.45;1.25;;;14.10;81.90;;;;;;4974041;28;20133;-76
2023/10/05 01:17:42;;;;;;;5.25;1.38;;;14.10;81.90;;;;;;4977595;28;20125;-75
2023/10/05 01:20:13;;;;;;;6.57;1.10;;;14.10;82.00;;;;;;5009975;28;20048;-75
2023/10/05 01:22:41;;;;;;;7.33;1.13;;;14.10;82.00;;;;;;5026326;28;20054;-76
2023/10/05 01:25:13;;;;;;;7.82;1.50;;;14.10;81.90;;;;;;5014739;28;20255;-75
2023/10/05 01:27:42;;;;;;;6.63;1.40;;;14.10;82.00;;;;;;4990305;28;20054;-75
2023/10/05 01:30:09;;;;;;;9.43;1.52;;;14.10;82.00;;;;;;5006928;28;20495;-75
2023/10/05 01:32:37;;;;;;;10.10;1.45;;;14.10;82.00;;;;;;5008080;28;20056;-75
2023/10/05 01:35:08;;;;;;;9.33;1.40;;;14.10;82.10;;;;;;4989744;28;20050;-75
2023/10/05 01:37:36;;;;;;;7.63;1.20;;;14.20;82.00;;;;;;4990491;28;20293;-76
2023/10/05 01:40:12;;;;;;;6.45;1.20;;;14.20;82.00;;;;;;5006910;28;20058;-76
2023/10/05 01:42:43;;;;;;;7.20;1.20;;;14.20;82.00;;;;;;5026872;28;20528;-76
2023/10/05 01:45:15;;;;;;;8.00;1.52;;;14.10;82.00;;;;;;5006004;28;20057;-75
2023/10/05 01:47:44;;;;;;;5.27;1.10;;;14.20;82.10;;;;;;4993322;28;20061;-75
2023/10/05 01:50:18;;;;;;;6.18;1.48;;;14.20;82.20;;;;;;4992590;28;20332;-75
2023/10/05 01:52:47;;;;;;;10.43;1.30;;;14.20;82.20;;;;;;5030565;28;20985;-75
2023/10/05 01:55:18;;;;;;;7.43;1.30;;;14.20;82.20;;;;;;4997086;28;20057;-75
2023/10/05 01:57:46;;;;;;;6.22;1.35;;;14.20;82.20;;;;;;4995874;28;20046;-75
2023/10/05 02:00:16;;;;;;;5.87;1.20;;;14.20;82.20;;;;;;5012969;28;20052;-75
2023/10/05 02:02:46;;;;;;;9.38;1.67;;;14.20;82.20;;;;;;5012397;28;20288;-75
2023/10/05 02:05:13;;;;;;;6.03;1.50;;;14.20;82.20;;;;;;5023559;28;20052;-75
2023/10/05 02:07:42;;;;;;;8.68;1.08;;;14.20;82.10;;;;;;5012945;28;20579;-75
2023/10/05 02:10:10;;;;;;;5.68;1.20;;;14.20;82.10;;;;;;5030526;28;20528;-75
2023/10/05 02:12:39;;;;;;;5.53;1.30;;;14.20;82.00;;;;;;5001676;28;20607;-75
2023/10/05 02:15:13;;;;;;;8.75;1.55;;;14.20;82.00;;;;;;4998919;28;20256;-76
2023/10/05 02:17:43;;;;;;;5.18;1.20;;;14.20;82.00;;;;;;4985437;28;20093;-75
2023/10/05 02:20:25;;;;;;;6.88;1.50;;;14.20;82.00;;;;;;5009248;28;20141;-75
2023/10/05 02:22:54;;;;;;;5.45;1.10;;;14.20;82.10;;;;;;5003182;28;20061;-76
2023/10/05 02:25:25;;;;;;;6.90;1.57;;;14.20;82.10;;;;;;4976463;28;20990;-76
2023/10/05 02:27:53;;;;;;;9.25;1.70;;;14.20;82.10;;;;;;5001759;28;20272;-75
2023/10/05 02:30:27;;;;;;;8.80;1.55;;;14.20;82.00;;;;;;5010587;28;20647;-76
2023/10/05 02:32:55;;;;;;;6.78;1.20;;;14.20;82.00;;;;;;4991746;28;20046;-75
2023/10/05 02:35:29;;;;;;;7.75;1.48;;;14.20;82.00;;;;;;5010583;28;20112;-76
2023/10/05 02:37:58;;;;;;;9.40;1.63;;;14.20;82.10;;;;;;4999212;28;20066;-75
2023/10/05 02:40:27;;;;;;;6.70;1.60;;;14.20;82.20;;;;;;5012321;28;20752;-75
2023/10/05 02:42:56;;;;;;;6.78;1.60;;;14.10;82.20;;;;;;4998198;28;20597;-75
2023/10/05 02:45:25;;;;;;;5.78;1.00;;;14.20;82.30;;;;;;4992877;28;20058;-75
2023/10/05 02:47:54;;;;;;;5.70;1.40;;;14.20;82.40;;;;;;4980032;28;20129;-75
2023/10/05 02:50:22;;;;;;;5.73;1.40;;;14.10;82.40;;;;;;5009191;28;20056;-75
2023/10/05 02:52:49;;;;;;;6.13;1.42;;;14.20;82.40;;;;;;5009833;28;20288;-75
2023/10/05 02:55:16;;;;;;;5.85;1.48;;;14.20;82.40;;;;;;5010738;28;20486;-75
2023/10/05 02:57:43;;;;;;;9.15;1.80;;;14.20;82.40;;;;;;5010818;28;20127;-76
2023/10/05 03:00:12;;;;;;;5.45;1.38;;;14.20;82.50;;;;;;4993511;28;20575;-75
2023/10/05 03:02:46;;;;;;;6.63;1.37;;;14.20;82.50;;;;;;5011235;28;20169;-75
2023/10/05 03:05:14;;;;;;;8.18;1.52;;;14.20;82.50;;;;;;4995237;28;20279;-75
2023/10/05 03:07:43;;;;;;;6.10;1.10;;;14.20;82.50;;;;;;5028200;28;20054;-75
2023/10/05 03:10:16;;;;;;;6.60;1.27;;;14.20;82.50;;;;;;5011669;28;20050;-76
2023/10/05 03:12:43;;;;;;;6.32;1.42;;;14.10;82.40;;;;;;5011423;28;20050;-76
2023/10/05 03:15:12;;;;;;;7.63;1.53;;;14.20;82.50;;;;;;5011916;28;20049;-75
2023/10/05 03:17:45;;;;;;;9.35;1.88;;;14.20;82.50;;;;;;5008472;28;20309;-76
2023/10/05 03:20:18;;;;;;;4.65;1.20;;;14.20;82.50;;;;;;5006867;28;20057;-75
2023/10/05 03:22:46;;;;;;;7.70;1.55;;;14.20;82.50;;;;;;5011867;28;20049;-76
2023/10/05 03:25:15;;;;;;;7.60;1.55;;;14.20;82.50;;;;;;5008664;28;20054;-75
2023/10/05 03:27:42;;;;;;;7.47;1.40;;;14.20;82.60;;;;;;5015521;28;20062;-75
2023/10/05 03:30:14;;;;;;;9.32;1.60;;;14.20;82.50;;;;;;4986041;28;20332;-75
2023/10/05 03:32:41;;;;;;;5.10;1.00;;;14.20;82.60;;;;;;4974981;28;20078;-75
2023/10/05 03:35:10;;;;;;;7.95;1.25;;;14.20;82.60;;;;;;5003814;28;20145;-75
2023/10/05 03:37:40;;;;;;;7.05;1.27;;;14.10;82.50;;;;;;4975507;28;20468;-75
2023/10/05 03:40:19;;;;;;;5.63;1.30;;;14.10;82.70;;;;;;5005071;28;20410;-75
2023/10/05 03:42:48;;;;;;;7.05;1.33;;;14.10;82.70;;;;;;5008223;28;20278;-76
2023/10/05 03:45:17;;;;;;;7.60;1.35;;;14.10;82.80;;;;;;4980858;28;20053;-75
2023/10/05 03:47:45;;;;;;;6.97;1.30;;;14.10;82.70;;;;;;4994644;28;20237;-75
2023/10/05 03:50:16;;;;;;;7.55;1.63;;;14.10;82.80;;;;;;5005719;28;20054;-75
2023/10/05 03:52:45;;;;;;;4.87;1.30;;;14.10;82.90;;;;;;5010036;28;20073;-75
2023/10/05 03:55:13;;;;;;;6.00;1.45;;;14.10;82.90;;;;;;4980777;28;20266;-75
2023/10/05 03:57:43;;;;;;;6.57;1.58;;;14.10;82.90;;;;;;4994408;28;20045;-75
2023/10/05 04:00:23;;;;;;;8.00;1.48;;;14.10;83.00;;;;;;5005197;28;20509;-75
2023/10/05 04:02:52;;;;;;;6.63;1.33;;;14.10;82.90;;;;;;4990732;28;20058;-75
2023/10/05 04:05:22;;;;;;;7.53;1.57;;;14.10;82.80;;;;;;4975148;28;20054;-75
2023/10/05 04:07:50;;;;;;;8.20;1.60;;;14.00;83.00;;;;;;4991373;28;20361;-75
2023/10/05 04:10:23;;;;;;;7.70;1.33;;;14.00;82.90;;;;;;5007381;28;20697;-75
2023/10/05 04:12:51;;;;;;;5.75;1.48;;;14.00;83.10;;;;;;5009222;28;20050;-75
2023/10/05 04:15:20;;;;;;;7.57;1.77;;;14.00;83.00;;;;;;5007434;28;20050;-75
2023/10/05 04:17:49;;;;;;;8.43;1.60;;;14.00;83.30;;;;;;5008936;28;20192;-75
2023/10/05 04:20:19;;;;;;;7.90;1.60;;;14.00;83.30;;;;;;4991219;28;20322;-75
2023/10/05 04:22:49;;;;;;;7.78;1.55;;;14.00;83.30;;;;;;5009834;28;20042;-75
2023/10/05 04:25:17;;;;;;;7.85;2.00;;;14.00;83.30;;;;;;5014616;28;20058;-76
2023/10/05 04:27:46;;;;;;;7.97;1.75;;;14.00;83.20;;;;;;5028476;28;20053;-75
2023/10/05 04:30:20;;;;;;;9.13;2.10;;;14.00;83.30;;;;;;4999244;28;20051;-76
2023/10/05 04:32:48;;;;;;;9.45;1.60;;;14.00;83.30;;;;;;5008627;28;20376;-75
2023/10/05 04:35:22;;;;;;;7.68;1.58;;;14.00;83.30;;;;;;4990568;28;20644;-75
2023/10/05 04:37:51;;;;;;;7.63;1.88;;;14.00;83.30;;;;;;5008731;28;20058;-75
2023/10/05 04:40:20;;;;;;;6.80;1.50;;;14.00;83.30;;;;;;5006137;28;20128;-75
2023/10/05 04:42:47;;;;;;;5.47;1.33;;;14.00;83.20;;;;;;4997578;28;20519;-75
2023/10/05 04:45:14;;;;;;;10.23;1.42;;;14.00;83.30;;;;;;5007108;28;20337;-75
2023/10/05 04:47:41;;;;;;;7.95;1.65;;;13.90;83.30;;;;;;5025168;28;20811;-75
2023/10/05 04:50:13;;;;;;;7.28;1.80;;;13.90;83.30;;;;;;5011202;28;20050;-75
2023/10/05 04:52:41;;;;;;;8.50;1.70;;;14.00;83.30;;;;;;5004820;28;20056;-75
2023/10/05 04:55:18;;;;;;;7.63;1.70;;;13.90;83.30;;;;;;4990588;28;20046;-75
2023/10/05 04:57:55;;;;;;;8.55;1.60;;;13.90;83.30;;;;;;4993322;28;20734;-75
2023/10/05 05:06:10;;;;;;;7.93;1.55;;;13.90;83.30;;;;;;5006284;28;20120;-75
2023/10/05 05:08:39;;;;;;;4.90;1.00;;;13.90;83.50;;;;;;4991285;28;20093;-75
2023/10/05 05:11:11;;;;;;;5.72;1.30;;;13.90;83.60;;;;;;5009779;28;20254;-76
2023/10/05 05:13:38;;;;;;;8.52;1.83;;;13.90;83.50;;;;;;5027361;28;20144;-75
2023/10/05 05:16:07;;;;;;;7.30;1.50;;;13.90;83.50;;;;;;5016132;28;20607;-75
2023/10/05 05:18:38;;;;;;;8.48;1.60;;;13.90;83.60;;;;;;5009688;28;20101;-75
2023/10/05 05:21:07;;;;;;;5.67;1.30;;;13.90;83.60;;;;;;5007910;28;20596;-75
2023/10/05 05:23:35;;;;;;;10.75;1.90;;;13.90;83.60;;;;;;5001320;28;20750;-75
2023/10/05 05:26:03;;;;;;;9.80;2.15;;;13.90;83.80;;;;;;5014379;28;20062;-75
2023/10/05 05:28:34;;;;;;;8.07;1.75;;;13.90;83.80;;;;;;5017640;28;20140;-75
2023/10/05 05:31:09;;;;;;;7.63;1.70;;;13.90;83.90;;;;;;5016156;28;20081;-75
2023/10/05 05:33:38;;;;;;;7.83;1.47;;;13.90;84.00;;;;;;5014741;28;20683;-76
2023/10/05 05:36:08;;;;;;;8.98;1.58;;;13.90;84.00;;;;;;5014168;28;20745;-75
2023/10/05 05:38:35;;;;;;;4.88;1.25;;;13.90;84.10;;;;;;5004081;28;20057;-75
2023/10/05 05:41:10;;;;;;;6.22;1.83;;;13.90;84.10;;;;;;5014556;28;20058;-76
2023/10/05 05:43:40;;;;;;;9.43;1.70;;;13.90;84.00;;;;;;5010331;28;20061;-75
2023/10/05 05:46:12;;;;;;;12.10;1.90;;;13.90;84.00;;;;;;5014242;28;20050;-75
2023/10/05 05:48:39;;;;;;;9.68;1.80;;;13.90;84.20;;;;;;5014614;28;20298;-75
2023/10/05 05:51:13;;;;;;;10.25;1.73;;;13.90;84.00;;;;;;5011378;28;20055;-75
2023/10/05 05:53:41;;;;;;;12.07;1.85;;;13.90;84.00;;;;;;4997610;28;20164;-76
2023/10/05 05:56:08;;;;;;;8.63;1.80;;;13.90;84.00;;;;;;5005863;28;20140;-75
2023/10/05 05:58:36;;;;;;;8.20;1.47;;;13.90;84.20;;;;;;5015751;28;20050;-75
2023/10/05 06:01:06;;;;;;;6.78;1.50;;;13.90;84.20;;;;;;5001463;28;20270;-75
2023/10/05 06:03:33;;;;;;;8.23;1.80;;;13.90;84.30;;;;;;5016251;28;20592;-75
2023/10/05 06:06:02;;;;;;;7.25;1.50;;;13.90;84.30;;;;;;4998110;28;20889;-75
2023/10/05 06:08:30;;;;;;;9.88;1.98;;;13.90;84.30;;;;;;4983419;28;20057;-75
2023/10/05 06:10:57;;;;;;;8.07;1.83;;;13.90;84.30;;;;;;4988528;28;20050;-75
2023/10/05 06:13:24;;;;;;;10.52;1.83;;;13.90;84.40;;;;;;4991845;28;20288;-75
2023/10/05 06:15:51;;;;;;;8.48;1.77;;;13.90;84.40;;;;;;5006461;28;20116;-75
2023/10/05 06:18:19;;;;;;;8.63;2.00;;;13.90;84.50;;;;;;5005554;28;20050;-75
2023/10/05 06:20:47;;;;;;;9.07;1.92;;;14.00;84.40;;;;;;5015667;28;20051;-76
2023/10/05 06:23:13;;;;;;;9.77;1.70;;;14.00;84.30;;;;;;4996925;28;20050;-75
2023/10/05 06:25:40;;;;;;;8.38;2.15;;;14.00;84.40;;;;;;5026871;28;20281;-75
2023/10/05 06:28:08;;;;;;;7.88;1.67;;;14.00;84.40;;;;;;5011424;28;20061;-75
2023/10/05 06:30:37;;;;;;;11.90;1.90;;;14.00;84.50;;;;;;5006993;28;20080;-75
2023/10/05 06:33:07;;;;;;;6.63;1.90;;;14.00;84.40;;;;;;5023850;28;20550;-75
2023/10/05 06:35:36;;;;;;;7.90;1.73;;;14.00;84.60;;;;;;5007210;28;20046;-75
2023/10/05 06:38:03;;;;;;;8.35;2.08;;;14.00;84.40;;;;;;4999879;28;20290;-75
2023/10/05 06:40:30;;;;;;;9.50;2.13;;;14.10;84.50;;;;;;5000575;28;20180;-75
2023/10/05 06:42:58;;;;;;;8.48;2.13;;;14.10;84.50;;;;;;5007624;28;20054;-75
2023/10/05 06:45:25;;;;;;;12.82;2.55;;;14.10;84.50;;;;;;4999083;28;20069;-75
2023/10/05 06:47:52;;;;;;;9.23;1.73;;;14.10;84.50;;;;;;5016898;28;20050;-75
2023/10/05 06:50:21;;;;;;;8.82;1.98;;;14.10;84.40;;;;;;5016851;28;20264;-75
2023/10/05 06:52:49;;;;;;;7.78;1.60;;;14.10;84.50;;;;;;4999928;28;20050;-75
2023/10/05 06:55:17;;;;;;;12.05;1.98;;;14.10;84.30;;;;;;4999484;28;20112;-75
2023/10/05 06:57:45;;;;;;;8.73;1.65;;;14.20;84.40;;;;;;5016286;28;20051;-75
2023/10/05 07:00:17;;;;;;;9.47;1.80;;;14.20;84.30;;;;;;5001549;28;20132;-75
2023/10/05 07:02:44;;;;;;;8.05;2.10;;;14.20;84.30;;;;;;5020583;28;20289;-75
2023/10/05 07:05:11;;;;;;;8.98;2.00;;;14.20;84.30;;;;;;5019739;28;20420;-75
2023/10/05 07:07:40;;;;;;;8.10;1.80;;;14.20;84.30;;;;;;5020273;28;20050;-75
2023/10/05 07:10:13;;;;;;;10.98;1.95;;;14.20;84.20;;;;;;5016259;28;20061;-75
2023/10/05 07:12:41;;;;;;;9.10;1.90;;;14.20;84.30;;;;;;5016485;28;20062;-75
2023/10/05 07:15:10;;;;;;;9.68;1.92;;;14.20;84.50;;;;;;4997753;28;20250;-75
2023/10/05 07:17:37;;;;;;;8.43;1.70;;;14.30;84.40;;;;;;5002461;28;20303;-76
2023/10/05 07:20:11;;;;;;;8.57;1.65;;;14.30;84.40;;;;;;5000959;28;20417;-75
2023/10/05 07:22:38;;;;;;;9.68;2.03;;;14.30;84.40;;;;;;5014831;28;20061;-75
2023/10/05 07:25:06;;;;;;;8.93;1.97;;;14.30;84.30;;;;;;5011280;28;20065;-75
2023/10/05 07:27:34;;;;;;;8.02;1.75;;;14.30;84.40;;;;;;4986647;28;20324;-75
2023/10/05 07:30:03;;;;;;;9.40;2.10;;;14.30;84.30;;;;;;5020890;28;20049;-75
2023/10/05 07:32:30;;;;;;;8.05;1.80;;;14.30;84.30;;;;;;5006116;28;20078;-75
2023/10/05 07:34:57;;;;;;;9.13;2.15;;;14.40;84.10;;;;;;5026621;28;20417;-75
2023/10/05 07:37:26;;;;;;;9.30;1.90;;;14.40;84.10;;;;;;5018659;28;20051;-75
2023/10/05 07:39:53;;;;;;;6.53;1.38;;;14.40;84.10;;;;;;5005843;28;20292;-75
2023/10/05 07:42:20;;;;;;;6.45;1.50;;;14.40;84.20;;;;;;5005475;28;20046;-75
2023/10/05 07:44:48;;;;;;;10.38;2.28;;;14.40;84.20;;;;;;5007538;28;20069;-75
2023/10/05 07:47:15;;;;;;;9.30;2.33;;;14.40;84.20;;;;;;4997602;28;20054;-76
2023/10/05 07:49:42;;;;;;;10.83;2.60;;;14.40;84.20;;;;;;5016383;28;20085;-76
2023/10/05 07:52:11;;;;;;;7.55;1.73;;;14.40;84.30;;;;;;5001905;28;20278;-75
2023/10/05 07:54:38;;;;;;;12.50;2.30;;;14.50;84.40;;;;;;5017699;28;20076;-75
2023/10/05 07:57:07;;;;;;;9.30;2.33;;;14.50;84.20;;;;;;5019508;28;20113;-75
2023/10/05 07:59:34;;;;;;;8.98;2.47;;;14.50;84.20;;;;;;5006429;28;20053;-75
2023/10/05 08:02:03;;;;;;;10.37;2.30;;;14.50;84.20;;;;;;5000714;28;20054;-75
2023/10/05 08:04:30;;;;;;;7.30;1.42;;;14.60;84.10;;;;;;4993984;28;20278;-76
2023/10/05 08:06:57;;;;;;;12.18;2.42;;;14.60;84.00;;;;;;5016753;28;20630;-76
2023/10/05 08:09:26;;;;;;;9.52;2.80;;;14.60;84.00;;;;;;5001758;28;20057;-75
2023/10/05 08:11:56;;;;;;;12.73;3.28;;;14.70;84.10;;;;;;5004389;28;20056;-76
2023/10/05 08:14:24;;;;;;;11.00;2.90;;;14.70;84.10;;;;;;5013184;28;20727;-76
2023/10/05 08:16:51;;;;;;;8.93;2.03;;;14.70;84.00;;;;;;4998030;28;20278;-76
2023/10/05 08:19:21;;;;;;;7.82;2.38;;;14.70;84.00;;;;;;5015297;28;20157;-75
2023/10/05 08:21:48;;;;;;;12.48;2.53;;;14.80;84.00;;;;;;5014312;28;20049;-76
2023/10/05 08:24:17;;;;;;;8.77;2.33;;;14.80;84.00;;;;;;5017884;28;20363;-76
2023/10/05 08:26:44;;;;;;;15.60;2.60;;;14.80;84.10;;;;;;4983657;28;20042;-76
2023/10/05 08:29:11;;;;;;;7.13;1.83;;;14.90;84.20;;;;;;5010601;28;20281;-75
2023/10/05 08:31:39;;;;;;;5.03;0.98;;;14.90;84.10;;;;;;5018789;28;20165;-75
2023/10/05 08:34:08;;;;;;;9.07;2.00;;;14.90;84.20;;;;;;5020270;28;20057;-75
2023/10/05 08:36:37;;;;;;;5.55;1.67;;;14.90;84.10;;;;;;4999536;28;20189;-76
2023/10/05 08:39:08;;;;;;;8.70;1.80;;;15.00;84.20;;;;;;5014690;28;20653;-75
2023/10/05 08:41:36;;;;;;;9.35;2.20;;;15.00;84.20;;;;;;5014476;28;20274;-75
2023/10/05 08:44:09;;;;;;;12.00;2.50;;;15.00;84.10;;;;;;5006752;28;20069;-75
2023/10/05 08:46:42;;;;;;;8.45;2.22;;;15.00;84.10;;;;;;5008363;28;20047;-75
2023/10/05 08:49:10;;;;;;;10.23;1.98;;;15.00;84.30;;;;;;5006804;28;20047;-75
2023/10/05 08:51:40;;;;;;;7.70;1.50;;;15.20;84.30;;;;;;4994709;28;20590;-75
2023/10/05 08:54:09;;;;;;;7.38;2.10;;;15.20;84.20;;;;;;5024992;28;20280;-75
2023/10/05 08:56:40;;;;;;;9.27;1.98;;;15.20;84.10;;;;;;5024713;28;20042;-76
2023/10/05 08:59:13;;;;;;;9.77;2.55;;;15.30;84.00;;;;;;5024803;28;20046;-75
2023/10/05 09:01:42;;;;;;;10.93;2.22;;;15.30;84.30;;;;;;5015875;28;20053;-75
2023/10/05 09:04:29;;;;;;;9.37;2.20;;;15.30;84.30;;;;;;5002254;28;20053;-75
2023/10/05 09:06:59;;;;;;;7.20;1.95;;;15.30;84.60;;;;;;5006247;28;20254;-75
2023/10/05 09:09:37;;;;;;;10.85;2.28;;;15.40;84.70;;;;;;5014585;28;20054;-75
2023/10/05 09:12:32;;;;;;;10.55;2.13;;;15.40;84.80;;;;;;4994858;28;20054;-75
2023/10/05 09:15:06;;;;;;;8.82;2.00;;;15.40;84.80;;;;;;5020682;28;20058;-75
2023/10/05 09:17:34;;;;;;;10.67;2.17;;;15.40;85.00;;;;;;4997111;28;20050;-75
2023/10/05 09:20:21;;;;;;;7.72;1.80;;;15.40;84.80;;;;;;5009973;28;20254;-75
2023/10/05 09:22:53;;;;;;;4.82;1.27;;;15.40;84.90;;;;;;5015135;28;20547;-75
2023/10/05 09:25:27;;;;;;;9.98;1.77;;;15.50;84.90;;;;;;4998000;28;20042;-75
2023/10/05 09:27:56;;;;;;;11.85;2.13;;;15.50;84.90;;;;;;5013169;28;20138;-75
2023/10/05 09:30:29;;;;;;;9.47;2.13;;;15.50;85.00;;;;;;5007513;28;20559;-75
2023/10/05 09:33:15;;;;;;;9.73;2.60;;;15.50;85.00;;;;;;5005569;28;20284;-75
2023/10/05 09:35:46;;;;;;;6.78;1.92;;;15.50;85.10;;;;;;4999905;28;20051;-75
2023/10/05 09:38:17;;;;;;;11.48;2.53;;;15.50;85.30;;;;;;5016685;28;20053;-75
2023/10/05 09:40:47;;;;;;;11.00;2.08;;;15.60;85.20;;;;;;5015043;28;20085;-75
2023/10/05 09:43:18;;;;;;;11.43;2.60;;;15.60;85.00;;;;;;5000740;28;20054;-75
2023/10/05 09:45:50;;;;;;;9.95;2.10;;;15.60;85.00;;;;;;5002483;28;20278;-75
2023/10/05 09:48:19;;;;;;;8.40;2.38;;;15.60;84.90;;;;;;5003366;28;20125;-75
2023/10/05 09:50:47;;;;;;;7.50;1.73;;;15.70;84.60;;;;;;5005555;28;20049;-75
2023/10/05 09:53:18;;;;;;;8.65;2.13;;;15.80;84.50;;;;;;5005417;28;20065;-75
2023/10/05 09:55:49;;;;;;;12.23;2.87;;;15.80;84.50;;;;;;5000473;28;20092;-75
2023/10/05 09:58:20;;;;;;;7.45;1.85;;;15.80;84.20;;;;;;5003808;28;20973;-76
2023/10/05 10:00:50;;;;;;;12.05;1.98;;;15.80;84.00;;;;;;5014592;28;20058;-75
2023/10/05 10:03:18;;;;;;;9.82;2.28;;;15.80;84.00;;;;;;4998228;28;20054;-76
2023/10/05 10:05:49;;;;;;;10.88;1.85;;;15.80;84.00;;;;;;5015450;28;20109;-75
2023/10/05 10:08:21;;;;;;;9.97;1.73;;;15.90;84.00;;;;;;5011120;28;20061;-74
2023/10/05 10:11:00;;;;;;;10.00;1.77;;;16.00;83.90;;;;;;4980351;28;20282;-75
2023/10/05 10:13:32;;;;;;;12.70;2.45;;;16.00;83.70;;;;;;5019809;28;20196;-75
2023/10/05 10:16:02;;;;;;;11.10;2.25;;;16.00;83.60;;;;;;4994966;28;20154;-75
2023/10/05 10:18:37;;;;;;;8.38;1.40;;;16.00;83.20;;;;;;5002727;28;20050;-76
2023/10/05 10:21:12;;;;;;;7.47;1.57;;;16.00;83.40;;;;;;5009532;28;20053;-76
2023/10/05 10:23:44;;;;;;;9.88;1.90;;;16.00;83.20;;;;;;4996551;28;20278;-75
2023/10/05 10:26:16;;;;;;;8.38;2.08;;;16.10;82.60;;;;;;5013964;28;20054;-75
2023/10/05 10:28:49;;;;;;;11.00;2.42;;;16.10;82.50;;;;;;5001249;28;20057;-76
2023/10/05 10:31:18;;;;;;;12.32;2.20;;;16.10;82.30;;;;;;5005804;28;20046;-76
2023/10/05 10:33:50;;;;;;;9.37;1.80;;;16.10;82.30;;;;;;5004420;28;20051;-77
2023/10/05 10:36:21;;;;;;;7.97;1.58;;;16.10;81.70;;;;;;5024474;28;20265;-77
2023/10/05 10:38:51;;;;;;;8.45;1.75;;;16.10;81.50;;;;;;5028222;28;20053;-76
2023/10/05 10:41:21;;;;;;;8.43;1.92;;;16.20;81.60;;;;;;5028398;28;20105;-77
2023/10/05 10:43:52;;;;;;;7.45;1.42;;;16.20;81.80;;;;;;4994119;28;20104;-77
2023/10/05 10:46:29;;;;;;;9.50;2.13;;;16.20;81.90;;;;;;5029576;28;20050;-77
2023/10/05 10:49:00;;;;;;;10.20;2.28;;;16.20;82.20;;;;;;5009220;28;20258;-77
2023/10/05 10:51:31;;;;;;;7.57;1.55;;;16.20;82.70;;;;;;5013217;28;20055;-77
2023/10/05 10:54:14;;;;;;;8.70;2.10;;;16.20;82.80;;;;;;5017916;28;20531;-77
2023/10/05 10:56:45;;;;;;;9.40;2.03;;;16.10;83.00;;;;;;4992420;28;20498;-76
2023/10/05 10:59:13;;;;;;;10.60;2.40;;;16.10;83.30;;;;;;4999105;28;20042;-76
2023/10/05 11:01:44;;;;;;;7.82;1.88;;;16.10;83.70;;;;;;5015072;28;20340;-77
2023/10/05 11:04:25;;;;;;;10.52;2.40;;;16.10;84.10;;;;;;5006447;28;20057;-77
2023/10/05 11:07:00;;;;;;;7.45;1.52;;;16.10;84.00;;;;;;4985790;28;20045;-77
2023/10/05 11:09:36;;;;;;;10.10;2.10;;;16.10;84.10;;;;;;5016129;28;20515;-77
2023/10/05 11:12:10;;;;;;;7.50;2.00;;;16.00;84.60;;;;;;5017792;28;20054;-77
2023/10/05 11:14:41;;;;;;;8.02;1.80;;;16.00;84.70;;;;;;5019344;28;20369;-77
2023/10/05 11:17:26;;;;;;;7.07;1.70;;;16.00;84.60;;;;;;5000181;28;20051;-78
2023/10/05 11:19:53;;;;;;;7.55;1.65;;;16.00;84.50;;;;;;5014315;28;20050;-78
2023/10/05 11:22:24;;;;;;;7.35;1.80;;;15.90;85.00;;;;;;5005689;28;20046;-77
2023/10/05 11:25:14;;;;;;;7.77;1.90;;;15.80;85.50;;;;;;5013857;28;20050;-78
2023/10/05 11:27:56;;;;;;;7.45;1.33;;;15.80;85.40;;;;;;4993643;28;20769;-75
2023/10/05 11:30:26;;;;;;;8.07;1.85;;;15.80;85.50;;;;;;5028060;28;20081;-77
2023/10/05 11:32:56;;;;;;;7.90;2.25;;;15.80;85.40;;;;;;5000982;28;20192;-76
2023/10/05 11:35:29;;;;;;;4.55;1.58;;;15.80;85.40;;;;;;5014246;28;20501;-76
2023/10/05 11:38:03;;;;;;;5.70;1.57;;;15.80;85.60;;;;;;4996744;28;20047;-76
2023/10/05 11:40:41;;;;;;;7.57;2.05;;;15.70;85.60;;;;;;5015763;28;20309;-76
2023/10/05 11:43:13;;;;;;;7.75;2.40;;;15.70;85.70;;;;;;5008178;28;20046;-76
2023/10/05 11:45:54;;;;;;;8.10;1.77;;;15.60;85.90;;;;;;5003433;28;20054;-76
2023/10/05 11:48:22;;;;;;;8.13;1.50;;;15.60;86.30;;;;;;5012984;28;20125;-77
2023/10/05 11:50:52;;;;;;;8.67;2.10;;;15.70;86.70;;;;;;4993380;28;20062;-77
2023/10/05 11:53:22;;;;;;;10.80;2.10;;;15.80;86.70;;;;;;5013495;28;20296;-76
2023/10/05 11:55:51;;;;;;;9.98;2.35;;;15.80;87.30;;;;;;5016843;28;20057;-77
2023/10/05 11:58:21;;;;;;;10.43;2.30;;;15.90;87.30;;;;;;5007431;28;20058;-76
2023/10/05 12:00:51;;;;;;;9.70;2.03;;;16.00;87.40;;;;;;5016231;28;20068;-77
2023/10/05 12:03:18;;;;;;;7.70;1.90;;;16.00;87.70;;;;;;5020727;28;20133;-78
2023/10/05 12:05:45;;;;;;;9.77;1.80;;;16.10;87.70;;;;;;5002878;28;20288;-77
2023/10/05 12:08:12;;;;;;;10.60;2.10;;;16.20;87.20;;;;;;5012358;28;20078;-77
2023/10/05 12:10:41;;;;;;;9.52;2.20;;;16.20;86.70;;;;;;5010389;28;20053;-76
2023/10/05 12:13:09;;;;;;;6.88;1.85;;;16.40;86.40;;;;;;5006598;28;20555;-77
2023/10/05 12:15:37;;;;;;;6.23;1.60;;;16.40;86.10;;;;;;5015738;28;20061;-76
2023/10/05 12:18:12;;;;;;;3.67;1.02;;;16.50;85.50;;;;;;5013914;28;20304;-77
2023/10/05 12:20:42;;;;;;;7.43;2.30;;;16.60;84.80;;;;;;5017014;28;20508;-76
2023/10/05 12:23:11;;;;;;;9.02;2.30;;;16.70;83.80;;;;;;5016612;28;20050;-78
2023/10/05 12:25:38;;;;;;;8.48;2.35;;;16.70;84.00;;;;;;5003033;28;20057;-77
2023/10/05 12:28:05;;;;;;;12.73;2.57;;;16.80;83.20;;;;;;5017473;28;20056;-78
2023/10/05 12:30:34;;;;;;;5.90;1.10;;;16.90;83.20;;;;;;4999325;28;20268;-78
2023/10/05 12:33:03;;;;;;;7.88;2.05;;;17.00;83.00;;;;;;4997652;28;20436;-77
2023/10/05 12:35:30;;;;;;;6.75;1.50;;;17.00;83.00;;;;;;4984374;28;20069;-77
2023/10/05 12:37:58;;;;;;;8.50;1.60;;;17.10;82.50;;;;;;4992115;28;20069;-77
2023/10/05 12:40:33;;;;;;;7.50;1.70;;;17.20;81.30;;;;;;4997650;28;20050;-77
2023/10/05 12:43:01;;;;;;;10.98;1.52;;;17.20;81.90;;;;;;5012015;28;20771;-77
2023/10/05 12:45:28;;;;;;;4.93;1.20;;;17.20;80.50;;;;;;4996041;28;20073;-77
2023/10/05 12:47:57;;;;;;;8.20;1.67;;;17.30;80.20;;;;;;4999959;28;20057;-77
2023/10/05 12:50:26;;;;;;;9.25;2.13;;;17.40;79.60;;;;;;4998088;28;20054;-77
2023/10/05 12:52:53;;;;;;;6.87;1.23;;;17.40;79.60;;;;;;5014420;28;20092;-77
2023/10/05 12:55:19;;;;;;;10.27;1.75;;;17.40;78.60;;;;;;5017111;28;20284;-77
2023/10/05 12:57:50;;;;;;;6.35;1.67;;;17.40;78.80;;;;;;5015106;28;20046;-77
2023/10/05 13:00:21;;;;;;;7.95;1.52;;;17.50;78.70;;;;;;5020053;28;20062;-78
2023/10/05 13:02:52;;;;;;;7.82;1.70;;;17.40;78.80;;;;;;5017937;28;20085;-77
2023/10/05 13:05:23;;;;;;;6.50;1.20;;;17.50;78.80;;;;;;5019112;28;20054;-77
2023/10/05 13:07:53;;;;;;;7.13;1.80;;;17.50;77.90;;;;;;4992311;28;20266;-77